createdAt,value
2023-03-28T00:00:47.217Z,92.30
2023-03-28T00:03:19.313Z,92.40
2023-03-28T00:05:50.298Z,92.10
2023-03-28T00:08:18.991Z,92.10
2023-03-28T00:10:47.453Z,92.10
2023-03-28T00:13:15.997Z,92.10
2023-03-28T00:15:47.767Z,92.10
2023-03-28T00:18:17.495Z,91.90
2023-03-28T00:20:45.844Z,92.20
2023-03-28T00:23:14.602Z,92.20
2023-03-28T00:25:43.489Z,92.10
2023-03-28T00:28:11.920Z,92.10
2023-03-28T00:30:40.378Z,92.20
2023-03-28T00:33:08.909Z,92.20
2023-03-28T00:35:38.725Z,92.20
2023-03-28T00:38:07.136Z,92.10
2023-03-28T00:40:38.775Z,92.10
2023-03-28T00:43:07.289Z,92.30
2023-03-28T00:45:38.435Z,92.40
2023-03-28T00:48:14.702Z,92.60
2023-03-28T00:50:46.822Z,92.30
2023-03-28T00:53:16.391Z,92.40
2023-03-28T00:55:47.182Z,92.30
2023-03-28T00:58:17.092Z,92.50
2023-03-28T01:00:46.969Z,92.60
2023-03-28T01:03:16.060Z,92.70
2023-03-28T01:05:47.623Z,92.50
2023-03-28T01:08:18.485Z,92.60
2023-03-28T01:10:49.710Z,92.20
2023-03-28T01:13:20.628Z,92.30
2023-03-28T01:15:50.209Z,92.40
2023-03-28T01:18:18.679Z,92.40
2023-03-28T01:21:28.698Z,92.80
2023-03-28T01:24:22.281Z,92.70
2023-03-28T01:26:52.066Z,92.50
2023-03-28T01:29:41.587Z,92.70
2023-03-28T01:32:25.588Z,92.60
2023-03-28T01:35:16.520Z,92.60
2023-03-28T01:37:47.305Z,92.50
2023-03-28T01:40:24.193Z,92.40
2023-03-28T01:42:56.239Z,92.50
2023-03-28T01:45:28.381Z,92.40
2023-03-28T01:47:59.235Z,92.40
2023-03-28T01:50:30.952Z,92.40
2023-03-28T01:53:03.453Z,92.60
2023-03-28T01:55:41.569Z,92.40
2023-03-28T01:58:13.710Z,92.60
2023-03-28T02:00:43.309Z,92.50
2023-03-28T02:03:14.287Z,92.70
2023-03-28T02:05:42.734Z,92.60
2023-03-28T02:08:12.401Z,92.40
2023-03-28T02:10:41.984Z,92.40
2023-03-28T02:13:12.169Z,92.30
2023-03-28T02:15:40.549Z,92.30
2023-03-28T02:18:11.146Z,92.10
2023-03-28T02:20:39.519Z,92.60
2023-03-28T02:23:09.910Z,92.50
2023-03-28T02:25:39.963Z,92.70
2023-03-28T02:28:08.956Z,92.80
2023-03-28T02:30:37.378Z,92.70
2023-03-28T02:33:08.481Z,92.90
2023-03-28T02:35:46.635Z,92.90
2023-03-28T02:38:17.381Z,92.90
2023-03-28T02:40:53.411Z,92.80
2023-03-28T02:43:48.647Z,92.80
2023-03-28T02:46:20.865Z,92.90
2023-03-28T02:49:22.801Z,93.00
2023-03-28T02:51:53.009Z,92.90
2023-03-28T02:54:26.119Z,92.90
2023-03-28T02:57:01.831Z,92.90
2023-03-28T02:59:32.830Z,93.00
2023-03-28T03:02:01.251Z,92.60
2023-03-28T03:04:29.621Z,92.90
2023-03-28T03:07:02.000Z,92.60
2023-03-28T03:09:30.424Z,92.60
2023-03-28T03:12:00.125Z,92.40
2023-03-28T03:14:28.562Z,92.60
2023-03-28T03:16:57.391Z,92.60
2023-03-28T03:19:25.728Z,92.50
2023-03-28T03:21:54.277Z,92.60
2023-03-28T03:24:22.734Z,92.60
2023-03-28T03:26:51.088Z,92.80
2023-03-28T03:29:20.780Z,92.70
2023-03-28T03:31:49.221Z,92.80
2023-03-28T03:34:17.838Z,92.90
2023-03-28T03:36:46.191Z,93.20
2023-03-28T03:39:14.560Z,93.00
2023-03-28T03:41:42.937Z,92.90
2023-03-28T03:44:11.279Z,93.10
2023-03-28T03:46:41.048Z,92.90
2023-03-28T03:49:10.165Z,93.20
2023-03-28T03:51:39.421Z,93.00
2023-03-28T03:54:07.821Z,92.90
2023-03-28T03:56:36.312Z,92.90
2023-03-28T03:59:04.734Z,93.00
2023-03-28T04:01:34.322Z,92.80
2023-03-28T04:04:04.161Z,93.10
2023-03-28T04:06:32.509Z,92.90
2023-03-28T04:09:00.950Z,92.90
2023-03-28T04:11:29.297Z,93.00
2023-03-28T04:13:57.705Z,92.90
2023-03-28T04:16:26.080Z,93.00
2023-03-28T04:18:54.443Z,92.90
2023-03-28T04:21:27.432Z,93.00
2023-03-28T04:23:55.985Z,92.90
2023-03-28T04:26:26.911Z,92.80
2023-03-28T04:28:55.308Z,92.80
2023-03-28T04:31:29.452Z,92.90
2023-03-28T04:34:00.282Z,92.90
2023-03-28T04:36:30.033Z,92.70
2023-03-28T04:39:02.304Z,92.70
2023-03-28T04:41:32.101Z,92.70
2023-03-28T04:44:00.726Z,92.70
2023-03-28T04:46:29.594Z,92.70
2023-03-28T04:48:57.926Z,92.60
2023-03-28T04:51:28.473Z,92.60
2023-03-28T04:53:58.168Z,92.60
2023-03-28T04:56:27.164Z,92.80
2023-03-28T04:58:55.815Z,92.70
2023-03-28T05:01:26.786Z,92.40
2023-03-28T05:03:55.497Z,92.40
2023-03-28T05:06:25.896Z,92.60
2023-03-28T05:08:54.268Z,92.60
2023-03-28T05:11:23.943Z,92.60
2023-03-28T05:13:52.626Z,92.60
2023-03-28T05:16:20.984Z,92.50
2023-03-28T05:18:49.395Z,92.60
2023-03-28T05:21:17.711Z,92.60
2023-03-28T05:23:51.940Z,92.60
2023-03-28T05:26:20.992Z,92.50
2023-03-28T05:28:51.323Z,92.40
2023-03-28T05:31:19.704Z,92.60
2023-03-28T05:33:48.067Z,92.30
2023-03-28T05:36:16.492Z,92.60
2023-03-28T05:38:44.879Z,92.30
2023-03-28T05:41:13.235Z,92.40
2023-03-28T05:43:41.578Z,92.50
2023-03-28T05:46:11.482Z,92.20
2023-03-28T05:48:39.851Z,92.20
2023-03-28T05:51:08.417Z,92.30
2023-03-28T05:53:36.830Z,92.40
2023-03-28T05:56:05.423Z,92.40
2023-03-28T05:58:33.823Z,92.40
2023-03-28T06:01:02.985Z,92.30
2023-03-28T06:03:32.788Z,92.30
2023-03-28T06:06:01.807Z,92.20
2023-03-28T06:08:30.410Z,92.10
2023-03-28T06:11:02.126Z,92.30
2023-03-28T06:13:30.886Z,91.80
2023-03-28T06:15:59.239Z,91.90
2023-03-28T06:18:27.575Z,92.00
2023-03-28T06:20:57.254Z,92.00
2023-03-28T06:23:25.667Z,91.70
2023-03-28T06:25:54.038Z,92.10
2023-03-28T06:28:22.332Z,91.70
2023-03-28T06:30:50.751Z,92.30
2023-03-28T06:33:19.095Z,91.90
2023-03-28T06:35:47.487Z,91.80
2023-03-28T06:38:17.228Z,91.80
2023-03-28T06:40:45.836Z,91.90
2023-03-28T06:43:14.168Z,92.20
2023-03-28T06:45:42.516Z,91.70
2023-03-28T06:48:10.992Z,91.90
2023-03-28T06:50:39.370Z,92.60
2023-03-28T06:53:07.712Z,92.30
2023-03-28T06:55:37.581Z,92.00
2023-03-28T06:58:06.656Z,91.80
2023-03-28T07:00:35.044Z,91.60
2023-03-28T07:03:03.623Z,91.60
2023-03-28T07:05:32.083Z,91.50
2023-03-28T07:08:00.676Z,91.50
2023-03-28T07:10:29.037Z,91.40
2023-03-28T07:12:58.763Z,91.40
2023-03-28T07:15:27.120Z,91.30
2023-03-28T07:17:55.557Z,91.10
2023-03-28T07:20:23.897Z,91.10
2023-03-28T07:22:52.272Z,90.90
2023-03-28T07:25:20.909Z,90.90
2023-03-28T07:27:49.236Z,90.80
2023-03-28T07:30:19.013Z,90.80
2023-03-28T07:32:55.640Z,90.80
2023-03-28T07:35:28.369Z,90.70
2023-03-28T07:37:57.446Z,90.60
2023-03-28T07:40:26.014Z,90.70
2023-03-28T07:42:54.386Z,91.40
2023-03-28T07:45:24.088Z,92.40
2023-03-28T07:47:52.483Z,92.70
2023-03-28T07:50:22.387Z,92.90
2023-03-28T07:52:57.402Z,92.70
2023-03-28T07:55:26.466Z,92.50
2023-03-28T07:57:54.991Z,92.50
2023-03-28T08:00:24.990Z,92.50
2023-03-28T08:02:53.418Z,92.60
2023-03-28T08:05:24.105Z,92.40
2023-03-28T08:07:53.780Z,92.30
2023-03-28T08:10:22.269Z,92.20
2023-03-28T08:12:50.993Z,92.10
2023-03-28T08:15:19.612Z,92.00
2023-03-28T08:17:49.346Z,92.30
2023-03-28T08:20:19.684Z,91.90
2023-03-28T08:22:48.010Z,91.80
2023-03-28T08:25:16.604Z,91.70
2023-03-28T08:27:44.914Z,91.50
2023-03-28T08:30:13.496Z,91.50
2023-03-28T08:32:42.116Z,91.40
2023-03-28T08:35:12.165Z,91.30
2023-03-28T08:37:42.129Z,91.30
2023-03-28T08:40:14.861Z,91.10
2023-03-28T08:42:49.338Z,91.10
2023-03-28T08:45:26.394Z,91.00
2023-03-28T08:47:57.945Z,91.00
2023-03-28T08:50:29.915Z,90.90
2023-03-28T08:52:58.241Z,90.90
2023-03-28T08:55:31.003Z,90.80
2023-03-28T08:57:59.364Z,90.80
2023-03-28T09:00:29.001Z,90.70
2023-03-28T09:02:57.564Z,90.70
2023-03-28T09:05:34.039Z,90.60
2023-03-28T09:08:07.901Z,90.60
2023-03-28T09:10:38.121Z,90.60
2023-03-28T09:13:11.410Z,90.60
2023-03-28T09:15:45.527Z,90.50
2023-03-28T09:18:44.080Z,90.60
2023-03-28T09:21:17.623Z,90.30
2023-03-28T09:23:53.554Z,90.40
2023-03-28T09:26:23.528Z,90.30
2023-03-28T09:28:55.437Z,90.20
2023-03-28T09:31:27.250Z,90.20
2023-03-28T09:33:58.366Z,90.20
2023-03-28T09:36:41.184Z,90.20
2023-03-28T09:39:20.684Z,90.20
2023-03-28T09:41:52.400Z,90.20
2023-03-28T09:44:22.376Z,90.20
2023-03-28T09:46:50.675Z,90.10
2023-03-28T09:49:20.205Z,90.10
2023-03-28T09:51:49.986Z,90.10
2023-03-28T09:54:18.787Z,90.10
2023-03-28T09:56:47.418Z,90.00
2023-03-28T09:59:26.228Z,90.00
2023-03-28T10:01:57.051Z,90.00
2023-03-28T10:04:33.518Z,90.00
2023-03-28T10:07:19.566Z,90.00
2023-03-28T10:09:48.836Z,90.00
2023-03-28T10:12:20.112Z,90.00
2023-03-28T10:14:48.553Z,90.00
2023-03-28T10:17:18.289Z,89.90
2023-03-28T10:19:47.255Z,89.80
2023-03-28T10:22:16.915Z,89.80
2023-03-28T10:24:47.267Z,89.80
2023-03-28T10:27:18.294Z,89.80
2023-03-28T10:29:46.663Z,89.70
2023-03-28T10:32:15.490Z,89.60
2023-03-28T10:34:44.780Z,89.60
2023-03-28T10:37:24.117Z,89.60
2023-03-28T10:40:05.657Z,89.60
2023-03-28T10:42:43.798Z,89.60
2023-03-28T10:45:20.893Z,89.60
2023-03-28T10:47:49.446Z,89.50
2023-03-28T10:50:27.155Z,89.50
2023-03-28T10:52:58.564Z,89.60
2023-03-28T10:55:28.949Z,89.50
2023-03-28T10:58:00.266Z,89.50
2023-03-28T11:00:30.427Z,89.50
2023-03-28T11:03:19.959Z,89.50
2023-03-28T11:06:05.784Z,89.50
2023-03-28T11:08:42.884Z,89.50
2023-03-28T11:11:18.979Z,89.60
2023-03-28T11:13:51.190Z,89.40
2023-03-28T11:16:22.845Z,89.40
2023-03-28T11:18:59.240Z,89.30
2023-03-28T11:21:30.654Z,89.30
2023-03-28T11:24:04.376Z,89.30
2023-03-28T11:26:40.013Z,89.20
2023-03-28T11:29:33.180Z,89.20
2023-03-28T11:32:13.928Z,89.20
2023-03-28T11:34:44.534Z,89.00
2023-03-28T11:37:17.507Z,89.10
2023-03-28T11:39:48.011Z,88.90
2023-03-28T11:42:21.516Z,89.00
2023-03-28T11:44:53.169Z,89.00
2023-03-28T11:47:23.412Z,88.80
2023-03-28T11:49:53.108Z,88.90
2023-03-28T11:52:23.970Z,88.90
2023-03-28T11:54:54.550Z,88.90
2023-03-28T11:57:28.884Z,88.80
2023-03-28T11:59:59.197Z,88.70
2023-03-28T12:02:39.046Z,88.90
2023-03-28T12:05:10.255Z,88.80
2023-03-28T12:07:40.268Z,88.70
2023-03-28T12:10:13.119Z,88.60
2023-03-28T12:12:46.103Z,88.70
2023-03-28T12:15:15.568Z,88.70
2023-03-28T12:17:45.471Z,88.60
2023-03-28T12:20:16.811Z,88.60
2023-03-28T12:22:46.486Z,88.40
2023-03-28T12:25:18.356Z,88.50
2023-03-28T12:27:54.584Z,88.50
2023-03-28T12:30:25.833Z,88.70
2023-03-28T12:32:59.525Z,88.70
2023-03-28T12:35:30.795Z,88.60
2023-03-28T12:38:18.941Z,88.60
2023-03-28T12:40:54.457Z,88.70
2023-03-28T12:43:27.284Z,88.70
2023-03-28T12:45:57.606Z,88.60
2023-03-28T12:48:32.248Z,88.60
2023-03-28T12:51:01.858Z,88.50
2023-03-28T12:53:31.729Z,88.40
2023-03-28T12:56:00.574Z,88.40
2023-03-28T12:58:30.740Z,88.40
2023-03-28T13:01:22.006Z,89.10
2023-03-28T13:03:58.794Z,88.40
2023-03-28T13:06:32.770Z,88.30
2023-03-28T13:09:08.217Z,88.40
2023-03-28T13:11:40.991Z,88.30
2023-03-28T13:14:29.251Z,88.30
2023-03-28T13:16:58.360Z,88.50
2023-03-28T13:19:48.510Z,88.50
2023-03-28T13:22:28.609Z,88.60
2023-03-28T13:25:16.781Z,88.60
2023-03-28T13:27:45.193Z,88.50
2023-03-28T13:30:17.395Z,88.50
2023-03-28T13:32:46.786Z,88.50
2023-03-28T13:35:40.328Z,88.40
2023-03-28T13:38:25.234Z,88.40
2023-03-28T13:40:55.702Z,88.40
2023-03-28T13:43:28.392Z,88.40
2023-03-28T13:45:59.633Z,88.30
2023-03-28T13:48:32.415Z,88.30
2023-03-28T13:51:02.083Z,88.20
2023-03-28T13:53:44.753Z,88.10
2023-03-28T13:56:24.222Z,88.10
2023-03-28T13:58:53.392Z,88.10
2023-03-28T14:01:25.410Z,88.10
2023-03-28T14:03:54.268Z,88.20
2023-03-28T14:06:23.585Z,88.20
2023-03-28T14:08:52.905Z,88.30
2023-03-28T14:11:23.417Z,88.30
2023-03-28T14:13:52.371Z,88.30
2023-03-28T14:16:21.151Z,88.20
2023-03-28T14:18:51.254Z,88.20
2023-03-28T14:21:19.591Z,88.20
2023-03-28T14:23:57.045Z,88.20
2023-03-28T14:26:27.459Z,88.30
2023-03-28T14:28:59.579Z,88.30
2023-03-28T14:31:32.256Z,88.30
2023-03-28T14:34:04.972Z,88.30
2023-03-28T14:36:37.761Z,88.40
2023-03-28T14:39:13.383Z,88.30
2023-03-28T14:41:42.293Z,88.40
2023-03-28T14:44:10.683Z,88.30
2023-03-28T14:46:39.110Z,88.30
2023-03-28T14:49:10.234Z,88.40
2023-03-28T14:51:42.570Z,88.40
2023-03-28T14:54:15.500Z,88.40
2023-03-28T14:56:44.151Z,88.40
2023-03-28T14:59:15.849Z,88.40
2023-03-28T15:01:44.674Z,88.40
2023-03-28T15:04:14.449Z,88.40
2023-03-28T15:06:42.909Z,88.40
2023-03-28T15:09:12.571Z,88.40
2023-03-28T15:11:43.491Z,88.40
2023-03-28T15:14:14.990Z,88.50
2023-03-28T15:16:43.988Z,88.40
2023-03-28T15:19:18.445Z,88.50
2023-03-28T15:21:52.912Z,88.60
2023-03-28T15:24:21.241Z,88.60
2023-03-28T15:26:51.042Z,88.60
2023-03-28T15:29:20.185Z,88.60
2023-03-28T15:31:48.596Z,88.70
2023-03-28T15:34:22.287Z,88.70
2023-03-28T15:36:52.789Z,88.80
2023-03-28T15:39:24.375Z,88.80
2023-03-28T15:41:54.572Z,88.80
2023-03-28T15:44:30.485Z,88.80
2023-03-28T15:47:00.662Z,89.60
2023-03-28T15:49:30.451Z,88.90
2023-03-28T15:52:02.693Z,88.90
2023-03-28T15:54:32.017Z,88.90
2023-03-28T15:57:01.648Z,89.00
2023-03-28T15:59:33.351Z,89.10
2023-03-28T16:02:19.842Z,89.20
2023-03-28T16:05:06.142Z,89.20
2023-03-28T16:07:36.233Z,89.30
2023-03-28T16:10:05.072Z,90.00
2023-03-28T16:12:33.375Z,89.40
2023-03-28T16:15:02.081Z,89.50
2023-03-28T16:17:31.066Z,89.50
2023-03-28T16:19:59.508Z,89.50
2023-03-28T16:22:29.159Z,89.50
2023-03-28T16:24:57.561Z,89.50
2023-03-28T16:27:25.932Z,89.50
2023-03-28T16:29:54.261Z,89.60
2023-03-28T16:32:23.856Z,89.50
2023-03-28T16:34:52.298Z,89.50
2023-03-28T16:37:20.709Z,89.50
2023-03-28T16:39:50.450Z,89.40
2023-03-28T16:42:20.865Z,89.50
2023-03-28T16:44:49.252Z,89.40
2023-03-28T16:47:17.601Z,89.50
2023-03-28T16:49:46.180Z,89.50
2023-03-28T16:52:14.627Z,89.50
2023-03-28T16:54:44.114Z,89.60
2023-03-28T16:57:13.817Z,89.60
2023-03-28T16:59:42.232Z,89.60
2023-03-28T17:02:10.863Z,89.60
2023-03-28T17:04:39.228Z,89.70
2023-03-28T17:07:07.635Z,89.70
2023-03-28T17:09:36.149Z,89.70
2023-03-28T17:12:04.694Z,89.70
2023-03-28T17:14:36.101Z,89.80
2023-03-28T17:17:04.541Z,89.90
2023-03-28T17:19:33.063Z,90.00
2023-03-28T17:22:04.647Z,90.00
2023-03-28T17:24:33.088Z,90.00
2023-03-28T17:27:01.723Z,90.00
2023-03-28T17:29:30.039Z,90.00
2023-03-28T17:31:59.755Z,90.00
2023-03-28T17:34:31.907Z,90.00
2023-03-28T17:37:00.485Z,90.00
2023-03-28T17:39:29.444Z,90.00
2023-03-28T17:41:57.833Z,90.00
2023-03-28T17:44:26.437Z,90.00
2023-03-28T17:46:56.623Z,90.10
2023-03-28T17:49:26.402Z,90.10
2023-03-28T17:51:56.707Z,90.10
2023-03-28T17:54:25.580Z,90.10
2023-03-28T17:56:53.989Z,90.10
2023-03-28T17:59:22.617Z,90.10
2023-03-28T18:01:51.068Z,90.10
2023-03-28T18:04:22.110Z,90.10
2023-03-28T18:06:51.832Z,90.10
2023-03-28T18:09:20.175Z,90.10
2023-03-28T18:11:49.004Z,90.20
2023-03-28T18:14:17.895Z,90.20
2023-03-28T18:16:46.812Z,90.20
2023-03-28T18:19:18.276Z,90.20
2023-03-28T18:21:46.634Z,90.20
2023-03-28T18:24:16.291Z,90.20
2023-03-28T18:26:44.990Z,90.20
2023-03-28T18:29:13.412Z,90.20
2023-03-28T18:31:42.517Z,90.20
2023-03-28T18:34:11.862Z,90.30
2023-03-28T18:36:42.258Z,90.30
2023-03-28T18:39:10.949Z,90.30
2023-03-28T18:41:40.608Z,90.30
2023-03-28T18:44:08.931Z,90.30
2023-03-28T18:46:37.365Z,90.30
2023-03-28T18:49:06.436Z,90.30
2023-03-28T18:51:35.476Z,90.30
2023-03-28T18:54:03.845Z,90.30
2023-03-28T18:56:32.944Z,90.30
2023-03-28T18:59:03.987Z,90.40
2023-03-28T19:01:34.093Z,90.40
2023-03-28T19:04:02.610Z,90.40
2023-03-28T19:06:31.140Z,90.40
2023-03-28T19:08:59.478Z,90.40
2023-03-28T19:11:28.174Z,90.80
2023-03-28T19:13:56.538Z,90.40
2023-03-28T19:16:26.646Z,90.40
2023-03-28T19:18:54.977Z,90.40
2023-03-28T19:21:23.318Z,90.40
2023-03-28T19:23:52.595Z,90.40
2023-03-28T19:26:21.525Z,90.40
2023-03-28T19:28:50.251Z,90.40
2023-03-28T19:31:20.219Z,90.40
2023-03-28T19:33:49.942Z,90.50
2023-03-28T19:36:18.413Z,90.50
2023-03-28T19:38:46.807Z,90.50
2023-03-28T19:41:17.899Z,90.50
2023-03-28T19:43:46.289Z,90.50
2023-03-28T19:46:16.546Z,90.50
2023-03-28T19:48:45.005Z,90.50
2023-03-28T19:51:15.405Z,90.50
2023-03-28T19:53:43.752Z,90.50
2023-03-28T19:56:12.167Z,90.50
2023-03-28T19:58:40.480Z,90.50
2023-03-28T20:01:08.871Z,90.50
2023-03-28T20:03:37.219Z,90.60
2023-03-28T20:06:06.793Z,90.60
2023-03-28T20:08:36.519Z,90.60
2023-03-28T20:11:05.069Z,90.60
2023-03-28T20:13:33.412Z,90.60
2023-03-28T20:16:02.698Z,90.60
2023-03-28T20:18:32.627Z,90.60
2023-03-28T20:21:05.096Z,90.60
2023-03-28T20:23:33.497Z,90.60
2023-03-28T20:26:14.093Z,90.60
2023-03-28T20:28:42.481Z,90.60
2023-03-28T20:31:12.446Z,91.00
2023-03-28T20:33:41.128Z,90.60
2023-03-28T20:36:09.613Z,90.60
2023-03-28T20:38:37.936Z,90.60
2023-03-28T20:41:11.998Z,90.60
2023-03-28T20:43:47.003Z,90.60
2023-03-28T20:46:18.227Z,90.60
2023-03-28T20:48:47.989Z,90.60
2023-03-28T20:51:17.506Z,91.00
2023-03-28T20:53:47.487Z,90.60
2023-03-28T20:56:17.692Z,90.60
2023-03-28T20:58:49.285Z,90.60
2023-03-28T21:01:25.188Z,90.60
2023-03-28T21:03:54.601Z,90.60
2023-03-28T21:06:25.164Z,90.60
2023-03-28T21:08:54.277Z,90.60
2023-03-28T21:11:26.239Z,90.60
2023-03-28T21:13:54.705Z,90.60
2023-03-28T21:16:23.232Z,90.60
2023-03-28T21:18:52.032Z,90.60
2023-03-28T21:21:20.899Z,90.60
2023-03-28T21:23:49.249Z,90.60
2023-03-28T21:26:18.349Z,90.60
2023-03-28T21:28:48.169Z,90.60
2023-03-28T21:31:18.162Z,90.60
2023-03-28T21:33:46.709Z,90.60
2023-03-28T21:36:16.828Z,90.60
2023-03-28T21:38:45.575Z,90.70
2023-03-28T21:41:14.109Z,90.70
2023-03-28T21:43:42.459Z,90.80
2023-03-28T21:46:13.472Z,90.80
2023-03-28T21:48:43.292Z,90.80
2023-03-28T21:51:11.972Z,90.60
2023-03-28T21:53:42.219Z,90.90
2023-03-28T21:56:11.626Z,91.10
2023-03-28T21:58:40.066Z,91.40
2023-03-28T22:01:08.500Z,91.50
2023-03-28T22:03:38.964Z,91.60
2023-03-28T22:06:08.246Z,91.30
2023-03-28T22:08:36.653Z,91.80
2023-03-28T22:11:13.364Z,91.70
2023-03-28T22:13:41.714Z,91.60
2023-03-28T22:16:12.756Z,91.60
2023-03-28T22:18:50.087Z,91.70
2023-03-28T22:21:18.829Z,91.50
2023-03-28T22:23:47.845Z,92.00
2023-03-28T22:26:16.468Z,91.80
2023-03-28T22:28:44.847Z,91.80
2023-03-28T22:31:13.187Z,92.00
2023-03-28T22:33:43.077Z,91.70
2023-03-28T22:36:12.900Z,92.00
2023-03-28T22:38:41.227Z,91.50
2023-03-28T22:41:09.539Z,91.80
2023-03-28T22:43:38.340Z,91.80
2023-03-28T22:46:07.265Z,91.90
2023-03-28T22:48:38.131Z,91.90
2023-03-28T22:51:11.747Z,92.10
2023-03-28T22:53:40.279Z,92.00
2023-03-28T22:56:09.676Z,92.00
2023-03-28T22:58:38.153Z,91.70
2023-03-28T23:01:07.354Z,91.80
2023-03-28T23:03:35.755Z,91.80
2023-03-28T23:06:06.110Z,91.80
2023-03-28T23:08:36.224Z,91.80
2023-03-28T23:11:04.840Z,91.70
2023-03-28T23:13:33.226Z,91.80
2023-03-28T23:16:02.307Z,91.80
2023-03-28T23:18:32.832Z,91.70
2023-03-28T23:21:01.939Z,91.70
2023-03-28T23:23:32.171Z,91.70
2023-03-28T23:26:01.817Z,91.70
2023-03-28T23:28:30.410Z,91.50
2023-03-28T23:30:58.850Z,91.70
2023-03-28T23:33:27.217Z,91.90
2023-03-28T23:35:55.542Z,91.50
2023-03-28T23:38:24.162Z,91.70
2023-03-28T23:40:52.500Z,91.80
2023-03-28T23:43:22.295Z,91.60
2023-03-28T23:45:50.680Z,91.40
2023-03-28T23:48:19.074Z,91.60
2023-03-28T23:50:47.453Z,91.60
2023-03-28T23:53:15.887Z,91.60
2023-03-28T23:55:44.484Z,91.90
2023-03-28T23:58:12.801Z,91.60
